Kindersley Airport, Saskatchewan

Past 24 Hour Conditions

Date / Time
(CST)
Conditions Temp
(°F)
Humidity
(%)
Dew Point
(°F)
Wind
(mph)
Pressure
(inches)
Visibility
(miles)
31 March 2015
15:00 Partly Cloudy 68   28 33 SW 15 29.5 15
14:00 Partly Cloudy 66 31 35 SW 14 gust 20 29.5 15
13:00 Mainly Sunny 63 38 37 SSW 16 29.5 15
12:00 Mainly Sunny 57 48 38 SSW 9 29.6 15
11:00 Mainly Sunny 52 59 38 SSW 13 29.6 15
10:00 Mainly Sunny 47 61 34 S 11 29.6 15
9:00 Mainly Sunny 44 62 32 SSE 9 29.7 15
8:00 Mainly Sunny 37 70 29 SSE 11 29.7 15
7:00 Mainly Sunny 35   69 26 SE 13 29.7 15
6:00 Mainly Clear 36 63 25 SE 15 29.7 15
5:00 Mainly Clear 38 56 23 SE 19 29.7 15
4:00 Mainly Clear 38 55 23 SE 18 29.8 15
3:00 Mainly Clear 40 54 25 SE 16 29.8 15
2:00 Mostly Cloudy 38 62 26 SSE 8 29.9 15
1:00 Partly Cloudy 40 57 26 SE 14 29.9 15
00:00 Mostly Cloudy 40 62 28 ESE 14 29.9 15
30 March 2015
23:00 Mostly Cloudy 41 62 29 ESE 11 29.9 15
22:00 Partly Cloudy 41 63 29 ESE 13 29.9 15
21:00 Partly Cloudy 42 61 30 ESE 12 29.9 15
20:00 Partly Cloudy 44 57 30 E 10 29.9 15
19:00 Partly Cloudy 52 43 30 NE 7 29.9 15
18:00 Mainly Sunny 55 30 24 N 5 29.9 15
17:00 Mainly Sunny 55 29 24 NNW 2 30.0 15
16:00 Mainly Sunny 55 32 26 WNW 8 30.0 15
15:00 Mainly Sunny 54 28 22 NNW 10 gust 17 30.0 15
N/A Not available
↑ Highest temperature
↓ Lowest temperature

If you require additional historical weather information, please visit Climate Data Online.

What we are doing

Date modified: